createdAt,value
2019-01-06T00:00:24.012Z,100.00
2019-01-06T00:03:20.943Z,100.00
2019-01-06T00:06:07.691Z,98.20
2019-01-06T00:09:01.519Z,99.40
2019-01-06T00:11:45.371Z,100.00
2019-01-06T00:14:51.725Z,99.00
2019-01-06T00:17:50.788Z,99.80
2019-01-06T00:20:38.865Z,99.60
2019-01-06T00:23:29.709Z,99.20
2019-01-06T00:26:24.792Z,98.20
2019-01-06T00:29:11.781Z,99.00
2019-01-06T00:31:59.741Z,99.60
2019-01-06T00:34:53.908Z,99.80
2019-01-06T00:37:40.925Z,99.60
2019-01-06T00:40:28.879Z,99.20
2019-01-06T00:43:08.979Z,99.00
2019-01-06T00:46:02.597Z,99.80
2019-01-06T00:49:08.748Z,100.00
2019-01-06T00:52:11.746Z,97.80
2019-01-06T00:55:05.477Z,99.40
2019-01-06T00:58:05.957Z,97.40
2019-01-06T01:00:53.954Z,98.20
2019-01-06T01:03:40.014Z,99.20
2019-01-06T01:06:26.874Z,99.00
2019-01-06T01:09:33.964Z,99.00
2019-01-06T01:12:20.061Z,99.00
2019-01-06T01:15:05.544Z,97.40
2019-01-06T01:17:52.373Z,97.40
2019-01-06T01:20:39.258Z,100.00
2019-01-06T01:23:25.309Z,97.40
2019-01-06T01:26:16.528Z,99.60
2019-01-06T01:29:18.390Z,97.80
2019-01-06T01:32:05.227Z,100.00
2019-01-06T01:34:54.260Z,99.40
2019-01-06T01:37:48.091Z,99.80
2019-01-06T01:40:45.213Z,99.80
2019-01-06T01:43:31.913Z,97.40
2019-01-06T01:46:38.107Z,100.00
2019-01-06T01:49:32.118Z,99.80
2019-01-06T01:52:20.111Z,99.60
2019-01-06T01:55:14.012Z,98.20
2019-01-06T01:57:58.768Z,99.80
2019-01-06T02:00:39.082Z,98.60
2019-01-06T02:03:33.299Z,99.20
2019-01-06T02:06:27.143Z,99.60
2019-01-06T02:09:13.945Z,100.00
2019-01-06T02:12:04.966Z,101.60
2019-01-06T02:14:59.186Z,100.40
2019-01-06T02:17:45.023Z,99.40
2019-01-06T02:20:33.920Z,100.80
2019-01-06T02:23:21.266Z,100.00
2019-01-06T02:26:04.870Z,100.00
2019-01-06T02:28:54.154Z,100.00
2019-01-06T02:31:41.123Z,99.20
2019-01-06T02:34:27.818Z,100.00
2019-01-06T02:37:31.425Z,99.00
2019-01-06T02:40:18.038Z,100.00
2019-01-06T02:43:10.110Z,101.60
2019-01-06T02:45:54.163Z,100.00
2019-01-06T02:48:40.914Z,100.00
2019-01-06T02:51:28.867Z,100.00
2019-01-06T02:54:14.543Z,102.40
2019-01-06T02:57:14.776Z,100.80
2019-01-06T03:00:00.306Z,99.00
2019-01-06T03:02:51.070Z,99.60
2019-01-06T03:05:48.184Z,100.00
2019-01-06T03:08:39.214Z,99.60
2019-01-06T03:11:36.065Z,99.80
2019-01-06T03:14:17.794Z,99.60
2019-01-06T03:17:18.304Z,100.00
2019-01-06T03:20:05.160Z,100.00
2019-01-06T03:22:53.393Z,99.80
2019-01-06T03:25:50.782Z,102.20
2019-01-06T03:28:37.537Z,100.00
2019-01-06T03:31:24.704Z,100.00
2019-01-06T03:34:05.367Z,100.00
2019-01-06T03:36:54.712Z,99.80
2019-01-06T03:39:55.044Z,100.00
2019-01-06T03:42:34.410Z,99.00
2019-01-06T03:45:21.449Z,100.00
2019-01-06T03:48:18.744Z,100.40
2019-01-06T03:51:05.412Z,100.00
2019-01-06T03:53:52.408Z,99.80
2019-01-06T03:56:39.402Z,99.60
2019-01-06T03:59:26.261Z,99.80
2019-01-06T04:02:13.255Z,100.00
2019-01-06T04:05:11.699Z,100.00
2019-01-06T04:07:58.578Z,99.80
2019-01-06T04:10:45.423Z,100.40
2019-01-06T04:13:48.663Z,100.00
2019-01-06T04:16:35.665Z,99.00
2019-01-06T04:19:20.021Z,99.20
2019-01-06T04:22:09.713Z,99.00
2019-01-06T04:25:09.836Z,99.80
2019-01-06T04:28:12.938Z,99.20
2019-01-06T04:30:59.538Z,97.00
2019-01-06T04:33:47.532Z,99.80
2019-01-06T04:36:34.331Z,99.00
2019-01-06T04:39:25.989Z,96.80
2019-01-06T04:42:12.794Z,98.60
2019-01-06T04:45:11.286Z,98.20
2019-01-06T04:48:10.409Z,96.60
2019-01-06T04:51:13.925Z,100.00
2019-01-06T04:54:20.077Z,96.60
2019-01-06T04:57:06.674Z,97.80
2019-01-06T05:00:06.918Z,99.60
2019-01-06T05:02:55.777Z,98.20
2019-01-06T05:05:37.786Z,99.00
2019-01-06T05:08:34.735Z,99.00
2019-01-06T05:11:31.176Z,99.00
2019-01-06T05:14:11.197Z,97.00
2019-01-06T05:16:56.980Z,98.20
2019-01-06T05:19:43.749Z,98.60
2019-01-06T05:22:41.085Z,99.00
2019-01-06T05:25:41.390Z,97.00
2019-01-06T05:28:35.427Z,99.20
2019-01-06T05:31:22.256Z,99.00
2019-01-06T05:34:09.267Z,98.20
2019-01-06T05:36:48.340Z,99.60
2019-01-06T05:39:36.379Z,96.80
2019-01-06T05:42:27.967Z,97.80
2019-01-06T05:45:31.198Z,99.20
2019-01-06T05:48:14.982Z,99.00
2019-01-06T05:51:01.653Z,98.60
2019-01-06T05:53:48.457Z,99.00
2019-01-06T05:56:28.396Z,99.60
2019-01-06T05:59:26.991Z,100.00
2019-01-06T06:02:24.161Z,97.00
2019-01-06T06:05:14.748Z,99.20
2019-01-06T06:08:01.613Z,98.60
2019-01-06T06:10:49.650Z,99.80
2019-01-06T06:13:36.686Z,98.20
2019-01-06T06:16:24.696Z,99.40
2019-01-06T06:19:12.637Z,100.00
2019-01-06T06:21:52.751Z,99.20
2019-01-06T06:24:40.780Z,99.00
2019-01-06T06:27:31.685Z,100.00
2019-01-06T06:30:16.196Z,99.60
2019-01-06T06:33:10.237Z,99.40
2019-01-06T06:35:53.566Z,98.60
2019-01-06T06:38:40.573Z,99.20
2019-01-06T06:41:20.038Z,99.40
2019-01-06T06:44:05.538Z,99.60
2019-01-06T06:47:05.670Z,98.20
2019-01-06T06:49:53.636Z,98.60
2019-01-06T06:52:42.230Z,96.40
2019-01-06T06:55:28.825Z,99.00
2019-01-06T06:58:23.935Z,101.20
2019-01-06T07:01:29.751Z,100.00
2019-01-06T07:04:16.446Z,97.00
2019-01-06T07:07:03.116Z,97.00
2019-01-06T07:09:50.065Z,97.80
2019-01-06T07:12:44.287Z,99.60
2019-01-06T07:15:31.233Z,97.80
2019-01-06T07:18:18.187Z,97.40
2019-01-06T07:21:06.270Z,99.00
2019-01-06T07:23:57.739Z,99.00
2019-01-06T07:26:45.713Z,99.40
2019-01-06T07:29:32.182Z,100.00
2019-01-06T07:32:32.118Z,99.40
2019-01-06T07:35:19.045Z,99.00
2019-01-06T07:38:19.434Z,97.80
2019-01-06T07:41:12.974Z,97.80
2019-01-06T07:44:19.088Z,99.00
2019-01-06T07:47:16.334Z,96.40
2019-01-06T07:50:20.770Z,97.80
2019-01-06T07:53:17.811Z,98.20
2019-01-06T07:56:08.522Z,97.00
2019-01-06T07:59:12.104Z,99.60
2019-01-06T08:02:00.175Z,99.40
2019-01-06T08:04:44.425Z,98.60
2019-01-06T08:07:31.520Z,97.40
2019-01-06T08:10:25.921Z,99.40
2019-01-06T08:13:19.924Z,97.00
2019-01-06T08:16:06.893Z,97.00
2019-01-06T08:19:07.121Z,99.00
2019-01-06T08:22:01.054Z,97.80
2019-01-06T08:24:58.096Z,97.00
2019-01-06T08:27:44.915Z,99.00
2019-01-06T08:30:31.863Z,97.40
2019-01-06T08:33:18.418Z,99.80
2019-01-06T08:36:19.140Z,99.00
2019-01-06T08:39:05.897Z,99.00
2019-01-06T08:41:56.940Z,99.60
2019-01-06T08:44:43.972Z,96.20
2019-01-06T08:47:38.187Z,100.00
2019-01-06T08:50:19.988Z,99.00
2019-01-06T08:53:14.228Z,99.20
2019-01-06T08:56:05.745Z,99.20
2019-01-06T08:58:54.733Z,100.00
2019-01-06T09:01:38.350Z,97.00
2019-01-06T09:04:34.308Z,100.00
2019-01-06T09:07:28.136Z,99.00
2019-01-06T09:10:08.565Z,99.60
2019-01-06T09:12:55.358Z,99.40
2019-01-06T09:15:42.377Z,99.80
2019-01-06T09:18:37.392Z,99.40
2019-01-06T09:21:40.638Z,100.00
2019-01-06T09:24:36.240Z,99.00
2019-01-06T09:27:42.650Z,99.60
2019-01-06T09:30:29.702Z,97.00
2019-01-06T09:33:26.983Z,99.60
2019-01-06T09:36:33.647Z,99.20
2019-01-06T09:39:20.803Z,100.60
2019-01-06T09:42:05.105Z,100.80
2019-01-06T09:44:53.516Z,99.80
2019-01-06T09:47:33.413Z,102.00
2019-01-06T09:50:33.284Z,100.80
2019-01-06T09:53:20.097Z,100.00
2019-01-06T09:56:07.123Z,102.20
2019-01-06T09:58:58.296Z,102.00
2019-01-06T10:01:45.404Z,103.00
2019-01-06T10:04:35.092Z,102.40
2019-01-06T10:07:30.576Z,102.40
2019-01-06T10:10:15.198Z,102.20
2019-01-06T10:13:03.311Z,105.00
2019-01-06T10:15:50.286Z,104.20
2019-01-06T10:18:44.944Z,106.40
2019-01-06T10:21:40.024Z,103.00
2019-01-06T10:24:37.436Z,105.00
2019-01-06T10:27:17.483Z,103.80
2019-01-06T10:30:14.465Z,104.20
2019-01-06T10:33:08.637Z,103.80
2019-01-06T10:36:05.620Z,102.80
2019-01-06T10:38:52.395Z,104.20
2019-01-06T10:41:39.400Z,105.20
2019-01-06T10:44:26.601Z,105.00
2019-01-06T10:47:08.526Z,104.60
2019-01-06T10:50:02.806Z,104.20
2019-01-06T10:52:53.686Z,106.00
2019-01-06T10:55:47.857Z,104.60
2019-01-06T10:58:34.826Z,105.00
2019-01-06T11:01:29.326Z,105.00
2019-01-06T11:04:27.479Z,105.80
2019-01-06T11:07:18.426Z,103.80
2019-01-06T11:10:06.478Z,103.80
2019-01-06T11:13:04.236Z,103.00
2019-01-06T11:15:55.137Z,103.80
2019-01-06T11:18:41.911Z,105.00
2019-01-06T11:21:28.838Z,103.40
2019-01-06T11:24:10.963Z,105.20
2019-01-06T11:26:57.588Z,105.20
2019-01-06T11:29:52.033Z,108.00
2019-01-06T11:32:46.217Z,105.20
2019-01-06T11:35:33.891Z,106.00
2019-01-06T11:38:21.084Z,103.80
2019-01-06T11:41:13.245Z,105.00
2019-01-06T11:44:00.069Z,105.20
2019-01-06T11:46:46.944Z,104.20
2019-01-06T11:49:34.030Z,105.60
2019-01-06T11:52:24.822Z,107.20
2019-01-06T11:55:24.794Z,106.00
2019-01-06T11:58:17.050Z,107.60
2019-01-06T12:01:03.959Z,106.40
2019-01-06T12:04:10.745Z,108.00
2019-01-06T12:07:07.906Z,104.60
2019-01-06T12:10:14.309Z,105.00
2019-01-06T12:13:03.208Z,108.00
2019-01-06T12:15:54.204Z,105.40
2019-01-06T12:18:53.229Z,108.00
2019-01-06T12:21:44.371Z,108.00
2019-01-06T12:24:33.928Z,108.00
2019-01-06T12:27:30.862Z,106.00
2019-01-06T12:30:30.969Z,105.60
2019-01-06T12:33:19.419Z,108.60
2019-01-06T12:36:09.701Z,110.00
2019-01-06T12:39:01.898Z,108.20
2019-01-06T12:42:08.857Z,108.00
2019-01-06T12:45:00.153Z,108.00
2019-01-06T12:48:05.695Z,107.20
2019-01-06T12:50:54.987Z,108.20
2019-01-06T12:54:20.021Z,108.40
2019-01-06T12:57:28.110Z,110.20
2019-01-06T13:00:17.484Z,108.60
2019-01-06T13:03:11.922Z,109.00
2019-01-06T13:06:03.862Z,105.80
2019-01-06T13:08:54.822Z,108.20
2019-01-06T13:11:44.542Z,107.60
2019-01-06T13:14:44.232Z,108.00
2019-01-06T13:17:48.074Z,106.80
2019-01-06T13:20:35.536Z,108.00
2019-01-06T13:23:39.890Z,110.60
2019-01-06T13:26:40.918Z,107.40
2019-01-06T13:29:27.780Z,108.60
2019-01-06T13:32:18.326Z,108.80
2019-01-06T13:35:06.694Z,107.80
2019-01-06T13:38:14.169Z,105.60
2019-01-06T13:41:03.127Z,106.80
2019-01-06T13:43:52.364Z,105.80
2019-01-06T13:46:40.572Z,104.60
2019-01-06T13:49:27.505Z,106.20
2019-01-06T13:52:25.136Z,108.20
2019-01-06T13:55:28.978Z,105.20
2019-01-06T13:58:16.535Z,105.80
2019-01-06T14:01:04.181Z,105.60
2019-01-06T14:04:13.131Z,108.00
2019-01-06T14:07:00.440Z,108.60
2019-01-06T14:09:48.072Z,108.00
2019-01-06T14:12:38.280Z,106.40
2019-01-06T14:15:29.662Z,105.40
2019-01-06T14:18:16.341Z,105.00
2019-01-06T14:21:03.495Z,108.00
2019-01-06T14:23:50.528Z,103.40
2019-01-06T14:26:37.426Z,105.00
2019-01-06T14:29:23.367Z,105.60
2019-01-06T14:32:10.261Z,106.80
2019-01-06T14:34:57.178Z,105.80
2019-01-06T14:37:57.619Z,105.60
2019-01-06T14:40:41.067Z,105.80
2019-01-06T14:43:38.409Z,107.20
2019-01-06T14:46:25.284Z,107.60
2019-01-06T14:49:16.536Z,106.00
2019-01-06T14:52:19.987Z,105.40
2019-01-06T14:55:08.018Z,106.00
2019-01-06T14:58:05.277Z,104.60
2019-01-06T15:01:05.393Z,105.20
2019-01-06T15:04:08.834Z,105.00
2019-01-06T15:07:02.947Z,106.00
2019-01-06T15:09:58.374Z,105.20
2019-01-06T15:12:45.309Z,108.00
2019-01-06T15:15:32.307Z,106.00
2019-01-06T15:18:20.339Z,108.20
2019-01-06T15:21:11.263Z,106.40
2019-01-06T15:23:59.457Z,104.20
2019-01-06T15:26:47.629Z,105.60
2019-01-06T15:29:51.019Z,105.60
2019-01-06T15:32:31.814Z,108.00
2019-01-06T15:35:22.530Z,107.80
2019-01-06T15:38:16.839Z,106.20
2019-01-06T15:41:15.272Z,108.00
2019-01-06T15:44:02.232Z,108.00
2019-01-06T15:46:50.313Z,105.60
2019-01-06T15:49:41.310Z,105.40
2019-01-06T15:52:28.306Z,108.00
2019-01-06T15:55:28.748Z,106.40
2019-01-06T15:58:17.358Z,107.60
2019-01-06T16:01:03.995Z,108.40
2019-01-06T16:04:10.376Z,108.00
2019-01-06T16:06:48.335Z,107.20
2019-01-06T16:09:54.520Z,105.40
2019-01-06T16:12:45.408Z,105.00
2019-01-06T16:15:36.499Z,105.40
2019-01-06T16:18:36.584Z,106.00
2019-01-06T16:21:40.340Z,107.60
2019-01-06T16:24:40.486Z,106.00
2019-01-06T16:27:34.481Z,105.60
2019-01-06T16:30:21.453Z,105.40
2019-01-06T16:33:28.112Z,106.00
2019-01-06T16:36:16.215Z,105.20
2019-01-06T16:39:16.635Z,105.20
2019-01-06T16:42:03.373Z,106.00
2019-01-06T16:45:04.286Z,105.00
2019-01-06T16:47:52.470Z,105.40
2019-01-06T16:50:40.488Z,108.00
2019-01-06T16:53:39.772Z,104.80
2019-01-06T16:56:37.245Z,105.00
2019-01-06T16:59:34.508Z,104.60
2019-01-06T17:02:21.248Z,105.00
2019-01-06T17:05:09.230Z,105.00
2019-01-06T17:08:12.552Z,107.00
2019-01-06T17:10:59.263Z,106.00
2019-01-06T17:13:50.270Z,105.00
2019-01-06T17:16:41.206Z,105.00
2019-01-06T17:19:34.803Z,105.80
2019-01-06T17:22:32.177Z,105.60
2019-01-06T17:25:19.123Z,107.60
2019-01-06T17:28:13.307Z,105.40
2019-01-06T17:31:07.440Z,106.80
2019-01-06T17:34:13.854Z,107.20
2019-01-06T17:36:56.954Z,107.20
2019-01-06T17:39:38.566Z,108.60
2019-01-06T17:42:32.606Z,108.20
2019-01-06T17:45:19.638Z,109.00
2019-01-06T17:48:14.001Z,111.00
2019-01-06T17:51:08.360Z,108.00
2019-01-06T17:53:56.365Z,108.00
2019-01-06T17:56:43.330Z,108.00
2019-01-06T17:59:37.601Z,108.60
2019-01-06T18:02:31.959Z,107.20
2019-01-06T18:05:23.163Z,106.40
2019-01-06T18:08:20.222Z,103.00
2019-01-06T18:11:07.279Z,107.60
2019-01-06T18:14:10.701Z,107.60
2019-01-06T18:16:57.484Z,108.00
2019-01-06T18:19:56.818Z,108.00
2019-01-06T18:22:53.014Z,107.20
2019-01-06T18:25:39.639Z,106.80
2019-01-06T18:28:20.305Z,108.00
2019-01-06T18:31:17.379Z,108.00
2019-01-06T18:34:17.496Z,104.80
2019-01-06T18:37:09.363Z,106.20
2019-01-06T18:40:00.604Z,109.00
2019-01-06T18:42:46.607Z,109.00
2019-01-06T18:45:52.328Z,109.40
2019-01-06T18:48:34.421Z,108.40
2019-01-06T18:51:21.424Z,108.00
2019-01-06T18:54:15.539Z,108.80
2019-01-06T18:57:09.506Z,108.00
2019-01-06T19:00:02.496Z,109.00
2019-01-06T19:02:53.627Z,108.20
2019-01-06T19:05:41.755Z,108.00
2019-01-06T19:08:33.398Z,108.00
2019-01-06T19:11:19.059Z,108.20
2019-01-06T19:14:16.190Z,108.00
2019-01-06T19:17:05.177Z,108.80
2019-01-06T19:19:52.902Z,107.60
2019-01-06T19:22:39.971Z,106.40
2019-01-06T19:25:34.095Z,110.20
2019-01-06T19:28:21.166Z,110.20
2019-01-06T19:31:18.444Z,109.00
2019-01-06T19:34:15.822Z,108.20
2019-01-06T19:37:03.813Z,109.00
2019-01-06T19:39:50.776Z,112.20
2019-01-06T19:42:48.239Z,109.00
2019-01-06T19:45:42.284Z,114.00
2019-01-06T19:48:33.992Z,109.80
2019-01-06T19:51:19.063Z,114.00
2019-01-06T19:54:12.100Z,112.40
2019-01-06T19:57:14.007Z,112.00
2019-01-06T20:00:14.787Z,111.80
2019-01-06T20:03:02.888Z,109.80
2019-01-06T20:06:09.640Z,117.40
2019-01-06T20:08:48.480Z,114.20
2019-01-06T20:11:48.057Z,112.00
2019-01-06T20:14:35.234Z,110.40
2019-01-06T20:17:26.069Z,112.40
2019-01-06T20:20:14.094Z,111.20
2019-01-06T20:23:01.039Z,113.80
2019-01-06T20:25:45.124Z,106.80
2019-01-06T20:28:24.432Z,111.00
2019-01-06T20:31:18.961Z,114.00
2019-01-06T20:34:10.234Z,111.20
2019-01-06T20:37:04.381Z,115.00
2019-01-06T20:39:51.940Z,112.00
2019-01-06T20:42:33.458Z,111.20
2019-01-06T20:45:21.460Z,111.80
2019-01-06T20:48:08.509Z,109.80
2019-01-06T20:51:14.949Z,111.20
2019-01-06T20:54:09.260Z,108.60
2019-01-06T20:56:56.119Z,112.80
2019-01-06T20:59:57.930Z,112.00
2019-01-06T21:02:45.154Z,109.00
2019-01-06T21:05:26.949Z,111.00
2019-01-06T21:08:12.672Z,110.80
2019-01-06T21:11:00.262Z,110.80
2019-01-06T21:13:48.215Z,111.80
2019-01-06T21:16:54.584Z,110.20
2019-01-06T21:19:57.816Z,109.40
2019-01-06T21:22:44.662Z,108.40
2019-01-06T21:25:31.490Z,112.00
2019-01-06T21:28:15.727Z,113.20
2019-01-06T21:31:02.353Z,109.60
2019-01-06T21:33:56.872Z,112.20
2019-01-06T21:36:36.483Z,112.80
2019-01-06T21:39:25.451Z,114.40
2019-01-06T21:42:27.152Z,114.40
2019-01-06T21:45:15.270Z,111.60
2019-01-06T21:48:01.908Z,111.80
2019-01-06T21:50:49.922Z,114.20
2019-01-06T21:53:41.420Z,114.80
2019-01-06T21:56:29.792Z,113.80
2019-01-06T21:59:12.548Z,113.60
2019-01-06T22:02:00.140Z,112.80
2019-01-06T22:04:51.023Z,113.80
2019-01-06T22:07:45.621Z,112.00
2019-01-06T22:10:30.504Z,114.00
2019-01-06T22:13:16.054Z,116.60
2019-01-06T22:16:19.177Z,116.60
2019-01-06T22:19:10.264Z,109.80
2019-01-06T22:21:58.239Z,114.60
2019-01-06T22:24:49.011Z,112.20
2019-01-06T22:27:36.161Z,115.80
2019-01-06T22:30:25.057Z,114.60
2019-01-06T22:33:16.261Z,112.00
2019-01-06T22:35:59.563Z,109.00
2019-01-06T22:38:47.551Z,113.60
2019-01-06T22:41:33.095Z,111.00
2019-01-06T22:44:21.188Z,109.80
2019-01-06T22:47:18.109Z,109.00
2019-01-06T22:50:06.178Z,108.80
2019-01-06T22:52:52.939Z,111.60
2019-01-06T22:55:43.924Z,105.40
2019-01-06T22:58:37.851Z,112.40
2019-01-06T23:01:20.003Z,108.40
2019-01-06T23:04:05.379Z,109.80
2019-01-06T23:06:46.881Z,108.40
2019-01-06T23:09:33.833Z,109.00
2019-01-06T23:12:24.949Z,109.00
2019-01-06T23:15:11.958Z,108.80
2019-01-06T23:18:06.943Z,107.60
2019-01-06T23:20:53.870Z,107.60
2019-01-06T23:23:57.455Z,107.20
2019-01-06T23:26:40.313Z,108.20
2019-01-06T23:29:27.000Z,104.20
2019-01-06T23:32:24.407Z,104.60
2019-01-06T23:35:24.477Z,108.00
2019-01-06T23:38:24.815Z,106.00
2019-01-06T23:41:19.152Z,108.00
2019-01-06T23:44:06.064Z,106.40
2019-01-06T23:46:48.641Z,102.80
2019-01-06T23:49:43.322Z,108.00
2019-01-06T23:52:25.097Z,103.40
2019-01-06T23:55:12.041Z,108.60
2019-01-06T23:57:55.556Z,101.80
